Time;durP1;ratioP1;P1;durP2;ratioP2;P2;SDS_P1;SDS_P2;PMS_P1;PMS_P2;Temp;Humidity;BMP_temperature;BMP_pressure;BME280_temperature;BME280_humidity;BME280_pressure;Samples;Min_cycle;Max_cycle;Signal;HPM_P1;HPM_P2
2023/06/04 00:01:11;;;;;;;1.88;1.20;;;;;;;14.20;47.21;101759.69;4978933;28;20042;-71
2023/06/04 00:03:37;;;;;;;2.80;1.10;;;;;;;14.17;47.54;101755.63;4979025;28;20120;-71
2023/06/04 00:06:02;;;;;;;3.65;1.85;;;;;;;14.14;47.93;101758.53;4974485;28;20039;-71
2023/06/04 00:08:28;;;;;;;2.88;1.27;;;;;;;14.11;48.44;101747.59;4979522;28;20042;-71
2023/06/04 00:10:53;;;;;;;5.85;1.23;;;;;;;14.07;49.28;101751.47;4994209;28;20120;-71
2023/06/04 00:13:19;;;;;;;3.88;1.40;;;;;;;14.02;50.29;101749.34;4970471;28;20042;-71
2023/06/04 00:15:45;;;;;;;7.65;1.48;;;;;;;13.96;51.48;101752.59;4982942;28;20697;-71
2023/06/04 00:18:13;;;;;;;25.10;2.67;;;;;;;13.92;52.76;101749.47;4975042;28;22032;-71
2023/06/04 00:20:38;;;;;;;3.30;1.50;;;;;;;13.85;53.85;101748.44;4975969;28;20469;-71
2023/06/04 00:23:04;;;;;;;3.67;1.60;;;;;;;13.75;54.56;101748.56;4977571;28;20136;-71
2023/06/04 00:25:31;;;;;;;2.75;1.20;;;;;;;13.68;54.65;101746.72;4981421;28;20045;-71
2023/06/04 00:27:56;;;;;;;4.03;1.80;;;;;;;13.62;54.40;101743.75;4980198;28;20046;-71
2023/06/04 00:30:21;;;;;;;6.30;1.55;;;;;;;13.57;53.70;101753.00;4993915;28;20481;-71
2023/06/04 00:32:47;;;;;;;2.67;1.50;;;;;;;13.53;53.32;101754.28;4992306;28;20101;-72
2023/06/04 00:35:12;;;;;;;7.05;1.90;;;;;;;13.50;53.28;101752.78;5023935;28;20050;-71
2023/06/04 00:37:38;;;;;;;3.70;1.58;;;;;;;13.43;53.03;101754.38;4990609;28;20428;-71
2023/06/04 00:40:05;;;;;;;3.65;1.70;;;;;;;13.36;52.98;101742.91;5022905;28;20500;-71
2023/06/04 00:42:31;;;;;;;4.30;1.85;;;;;;;13.32;53.07;101746.78;4996336;28;20104;-71
2023/06/04 00:44:57;;;;;;;3.22;1.38;;;;;;;13.27;53.21;101754.19;4991505;28;20056;-71
2023/06/04 00:47:23;;;;;;;4.78;1.67;;;;;;;13.20;53.38;101759.19;4997339;28;20357;-71
2023/06/04 00:49:48;;;;;;;2.80;1.48;;;;;;;13.15;53.70;101749.22;4992901;28;20105;-71
2023/06/04 00:52:16;;;;;;;4.93;1.85;;;;;;;13.09;54.33;101747.22;5011685;28;20041;-71
2023/06/04 00:54:42;;;;;;;2.80;1.60;;;;;;;13.06;54.33;101755.31;5000907;28;20444;-71
2023/06/04 00:57:08;;;;;;;4.88;1.80;;;;;;;13.03;54.42;101751.25;5014269;28;20041;-71
2023/06/04 00:59:36;;;;;;;3.85;1.77;;;;;;;13.00;54.46;101738.53;4997075;28;20036;-71
2023/06/04 01:02:11;;;;;;;3.38;1.70;;;;;;;12.96;54.59;101745.00;4977065;28;20030;-70
2023/06/04 01:04:55;;;;;;;4.93;1.80;;;;;;;12.94;54.50;101753.91;4997085;28;20125;-71
2023/06/04 01:07:23;;;;;;;5.60;1.63;;;;;;;12.91;54.83;101749.81;4979930;28;20034;-71
2023/06/04 01:09:49;;;;;;;4.45;1.70;;;;;;;12.88;55.18;101757.91;4976301;28;20086;-71
2023/06/04 01:12:14;;;;;;;4.68;1.50;;;;;;;12.83;55.71;101757.56;4978219;28;20319;-71
2023/06/04 01:14:41;;;;;;;6.07;1.50;;;;;;;12.78;56.17;101751.97;4994099;28;20452;-71
2023/06/04 01:17:36;;;;;;;3.17;1.73;;;;;;;12.71;56.69;101756.13;4984962;28;20041;-71
2023/06/04 01:20:08;;;;;;;4.50;1.48;;;;;;;12.65;56.70;101753.13;4980963;28;20708;-71
2023/06/04 01:22:54;;;;;;;2.92;1.30;;;;;;;12.60;56.83;101759.72;5016890;28;20038;-71
2023/06/04 01:25:30;;;;;;;6.03;1.73;;;;;;;12.57;56.69;101763.44;5003689;28;20049;-71
2023/06/04 01:27:57;;;;;;;7.22;1.80;;;;;;;12.53;56.95;101764.72;5016240;28;20022;-71
2023/06/04 01:30:29;;;;;;;3.15;1.58;;;;;;;12.49;57.07;101762.53;5014145;28;20500;-71
2023/06/04 01:32:55;;;;;;;5.72;1.80;;;;;;;12.42;57.34;101763.13;5017021;28;20511;-71
2023/06/04 01:35:22;;;;;;;3.92;1.60;;;;;;;12.38;57.90;101763.56;5001827;28;20515;-71
2023/06/04 01:37:48;;;;;;;3.97;1.75;;;;;;;12.30;58.56;101761.69;5001726;28;20033;-71
2023/06/04 01:40:14;;;;;;;2.85;1.48;;;;;;;12.25;59.15;101763.88;5001703;28;20373;-70
2023/06/04 01:42:41;;;;;;;3.55;1.55;;;;;;;12.23;59.30;101765.81;4992176;28;20021;-71
2023/06/04 01:45:07;;;;;;;4.80;1.98;;;;;;;12.20;59.21;101766.91;4986658;28;20050;-71
2023/06/04 01:47:33;;;;;;;3.63;1.63;;;;;;;12.18;59.38;101765.41;4983992;28;20046;-71
2023/06/04 01:49:59;;;;;;;5.25;1.85;;;;;;;12.16;59.47;101762.97;4983921;28;20126;-71
2023/06/04 01:52:24;;;;;;;3.33;1.85;;;;;;;12.14;59.35;101766.66;4997545;28;20034;-71
2023/06/04 01:54:52;;;;;;;3.78;1.80;;;;;;;12.08;59.25;101763.66;4980436;28;20046;-71
2023/06/04 01:57:21;;;;;;;3.30;1.83;;;;;;;11.97;59.92;101761.25;4980541;28;20027;-71
2023/06/04 01:59:47;;;;;;;5.22;1.90;;;;;;;11.86;60.13;101758.78;4996793;28;20132;-71
2023/06/04 02:02:14;;;;;;;5.32;1.90;;;;;;;11.81;60.83;101767.00;5001436;28;20603;-70
2023/06/04 02:04:41;;;;;;;7.90;2.95;;;;;;;11.77;61.53;101767.41;4983119;28;20046;-71
2023/06/04 02:07:09;;;;;;;4.47;1.80;;;;;;;11.71;61.98;101768.78;5024668;28;20073;-70
2023/06/04 02:09:35;;;;;;;5.32;2.13;;;;;;;11.64;61.97;101770.31;5011093;28;20050;-70
2023/06/04 02:12:01;;;;;;;5.88;1.60;;;;;;;11.55;62.30;101771.97;4979949;28;20038;-70
2023/06/04 02:14:27;;;;;;;4.80;2.00;;;;;;;11.54;62.59;101770.31;4995692;28;20427;-70
2023/06/04 02:16:53;;;;;;;3.80;1.90;;;;;;;11.55;62.68;101773.75;5000129;28;20041;-70
2023/06/04 02:19:20;;;;;;;3.03;1.80;;;;;;;11.52;62.89;101774.03;4999549;28;20408;-71
2023/06/04 02:21:46;;;;;;;3.50;1.55;;;;;;;11.48;63.05;101768.28;5002397;28;20038;-70
2023/06/04 02:24:12;;;;;;;2.80;1.50;;;;;;;11.46;63.69;101776.22;4988585;28;20050;-70
2023/06/04 02:26:38;;;;;;;5.10;2.13;;;;;;;11.42;64.33;101774.84;4986856;28;20836;-71
2023/06/04 02:29:03;;;;;;;3.00;1.77;;;;;;;11.36;64.74;101778.00;5029853;22;20050;-68
2023/06/04 02:31:29;;;;;;;3.42;1.50;;;;;;;11.31;64.64;101782.78;4963551;28;20029;-68
2023/06/04 02:33:55;;;;;;;5.78;2.22;;;;;;;11.25;65.02;101783.34;4979734;28;20559;-68
2023/06/04 02:36:21;;;;;;;4.35;1.90;;;;;;;11.19;65.05;101786.47;5016394;28;20102;-68
2023/06/04 02:38:46;;;;;;;4.97;1.60;;;;;;;11.15;65.38;101783.34;4983354;28;20045;-68
2023/06/04 02:41:11;;;;;;;3.53;1.50;;;;;;;11.12;65.42;101775.81;5002033;28;20045;-68
2023/06/04 02:43:37;;;;;;;3.10;1.73;;;;;;;11.11;65.49;101781.94;4994687;28;20046;-68
2023/06/04 02:46:03;;;;;;;4.38;1.73;;;;;;;11.07;65.62;101785.78;4998690;28;20550;-68
2023/06/04 02:48:28;;;;;;;3.30;1.80;;;;;;;11.01;66.25;101781.13;4998185;28;20816;-68
2023/06/04 02:50:53;;;;;;;4.88;1.90;;;;;;;10.99;66.57;101776.06;4999204;28;20037;-68
2023/06/04 02:53:20;;;;;;;3.50;1.80;;;;;;;10.97;66.79;101782.34;5000830;28;20037;-68
2023/06/04 02:55:46;;;;;;;2.78;1.65;;;;;;;10.96;66.89;101786.72;5015074;28;20550;-68
2023/06/04 02:58:11;;;;;;;4.70;2.05;;;;;;;10.92;67.23;101782.75;4998620;28;20077;-68
2023/06/04 03:00:37;;;;;;;3.85;1.90;;;;;;;10.90;67.42;101782.06;4997824;28;20018;-68
2023/06/04 03:03:02;;;;;;;2.75;1.60;;;;;;;10.87;67.76;101784.94;5009258;28;20026;-68
2023/06/04 03:05:30;;;;;;;12.75;2.08;;;;;;;10.84;68.00;101782.59;4995509;28;20056;-68
2023/06/04 03:07:57;;;;;;;6.07;1.80;;;;;;;10.82;68.44;101784.50;4997395;28;20030;-68
2023/06/04 03:10:22;;;;;;;4.80;1.80;;;;;;;10.79;68.29;101785.59;4983470;28;20034;-68
2023/06/04 03:12:48;;;;;;;4.57;1.70;;;;;;;10.78;68.46;101789.16;5015073;28;20038;-68
2023/06/04 03:15:14;;;;;;;5.13;1.95;;;;;;;10.73;68.85;101785.31;4995236;28;20464;-68
2023/06/04 03:17:41;;;;;;;4.90;2.00;;;;;;;10.65;69.52;101783.38;4995115;28;20038;-68
2023/06/04 03:20:07;;;;;;;3.38;1.70;;;;;;;10.61;69.48;101782.00;5000527;28;20185;-68
2023/06/04 03:22:36;;;;;;;3.80;1.70;;;;;;;10.60;69.74;101785.53;4992201;28;20068;-68
2023/06/04 03:25:03;;;;;;;4.53;2.17;;;;;;;10.58;70.06;101783.06;5011690;28;21472;-68
2023/06/04 03:27:30;;;;;;;3.25;1.80;;;;;;;10.57;70.02;101784.03;4998357;28;20503;-68
2023/06/04 03:29:55;;;;;;;4.00;2.03;;;;;;;10.54;70.21;101783.47;4984542;28;20108;-68
2023/06/04 03:32:21;;;;;;;3.75;1.80;;;;;;;10.48;71.00;101792.63;4985259;28;20029;-68
2023/06/04 03:34:47;;;;;;;8.52;2.47;;;;;;;10.45;71.57;101787.69;4993031;28;20423;-68
2023/06/04 03:37:12;;;;;;;4.45;1.40;;;;;;;10.43;71.62;101793.00;4995121;28;20038;-68
2023/06/04 03:39:38;;;;;;;3.65;1.95;;;;;;;10.40;72.25;101788.09;4978218;28;20462;-68
2023/06/04 03:42:06;;;;;;;4.55;1.80;;;;;;;10.39;72.42;101793.38;4994876;28;20464;-68
2023/06/04 03:44:32;;;;;;;3.85;1.83;;;;;;;10.40;72.64;101793.25;5010351;28;20042;-68
2023/06/04 03:46:58;;;;;;;3.20;1.65;;;;;;;10.39;72.82;101788.22;4997556;28;20018;-68
2023/06/04 03:49:24;;;;;;;7.30;2.45;;;;;;;10.37;72.92;101788.34;4995775;28;20378;-68
2023/06/04 03:51:50;;;;;;;2.97;1.67;;;;;;;10.37;73.16;101790.13;4980048;28;20030;-68
2023/06/04 03:54:17;;;;;;;6.43;1.80;;;;;;;10.38;73.03;101782.22;4995907;28;20920;-68
2023/06/04 03:56:45;;;;;;;4.28;1.92;;;;;;;10.38;73.56;101787.41;4995593;28;20399;-68
2023/06/04 03:59:11;;;;;;;3.88;2.03;;;;;;;10.38;73.87;101789.16;5009236;28;20038;-68
2023/06/04 04:01:38;;;;;;;4.70;2.30;;;;;;;10.37;73.69;101785.75;5008091;28;20030;-68
2023/06/04 04:04:04;;;;;;;3.40;1.98;;;;;;;10.37;73.94;101790.13;4995969;28;20092;-68
2023/06/04 04:06:30;;;;;;;3.20;1.77;;;;;;;10.39;73.92;101789.03;4996435;28;20053;-68
2023/06/04 04:08:56;;;;;;;3.30;2.00;;;;;;;10.39;74.43;101790.78;5013412;28;20125;-69
2023/06/04 04:11:22;;;;;;;10.32;1.98;;;;;;;10.37;74.66;101785.75;4996898;28;20030;-68
2023/06/04 04:13:48;;;;;;;3.10;1.70;;;;;;;10.37;74.67;101790.13;4996820;28;20050;-69
2023/06/04 04:16:14;;;;;;;7.50;1.92;;;;;;;10.38;75.18;101789.16;4985844;28;20037;-68
2023/06/04 04:18:42;;;;;;;6.90;1.80;;;;;;;10.38;75.58;101784.81;5011380;28;20042;-68
2023/06/04 04:21:07;;;;;;;4.68;2.28;;;;;;;10.38;75.93;101786.56;5016397;28;20033;-68
2023/06/04 04:23:33;;;;;;;4.18;1.70;;;;;;;10.38;76.27;101786.56;4994952;28;20092;-68
2023/06/04 04:25:59;;;;;;;4.65;2.10;;;;;;;10.38;76.90;101783.97;4997991;28;20038;-68
2023/06/04 04:28:28;;;;;;;3.55;2.45;;;;;;;10.39;77.01;101788.22;5014584;28;20046;-68
2023/06/04 04:30:56;;;;;;;4.82;2.13;;;;;;;10.41;77.26;101799.25;5000866;28;20041;-68
2023/06/04 04:33:24;;;;;;;4.45;1.85;;;;;;;10.43;77.57;101795.56;5017517;28;20442;-69
2023/06/04 04:35:50;;;;;;;7.38;2.47;;;;;;;10.47;77.53;101793.53;5002115;28;20030;-68
2023/06/04 04:38:23;;;;;;;4.18;2.00;;;;;;;10.48;77.67;101793.41;4999551;28;20050;-69
2023/06/04 04:40:55;;;;;;;3.60;2.13;;;;;;;10.51;78.05;101794.94;5017048;28;20050;-68
2023/06/04 04:43:30;;;;;;;5.70;2.65;;;;;;;10.55;78.31;101798.06;5001060;28;20685;-69
2023/06/04 04:45:56;;;;;;;3.53;2.03;;;;;;;10.60;78.17;101790.72;5000532;28;20701;-69
2023/06/04 04:48:23;;;;;;;4.72;1.95;;;;;;;10.65;77.88;101798.94;5000770;28;20049;-69
2023/06/04 04:50:49;;;;;;;6.13;2.30;;;;;;;10.67;78.08;101799.63;5005046;28;20080;-69
2023/06/04 04:53:14;;;;;;;7.20;2.17;;;;;;;10.74;77.91;101798.16;5002744;28;20409;-68
2023/06/04 04:55:40;;;;;;;3.05;1.85;;;;;;;10.78;78.60;101791.75;5003699;28;20055;-68
2023/06/04 04:58:05;;;;;;;2.58;1.80;;;;;;;10.82;78.47;101790.50;5002009;28;20034;-69
2023/06/04 05:00:31;;;;;;;3.78;2.22;;;;;;;10.87;78.42;101793.53;5002906;28;20026;-69
2023/06/04 05:02:57;;;;;;;4.57;2.40;;;;;;;10.89;79.01;101789.03;4999000;28;20506;-69
2023/06/04 05:05:22;;;;;;;5.25;2.55;;;;;;;11.01;79.17;101794.91;4983619;28;20071;-68
2023/06/04 05:07:49;;;;;;;9.73;2.60;;;;;;;11.08;79.16;101785.66;5000572;28;20144;-69
2023/06/04 05:10:17;;;;;;;5.85;3.05;;;;;;;11.18;79.05;101792.63;4998719;28;20057;-68
2023/06/04 05:12:58;;;;;;;4.65;2.30;;;;;;;11.25;79.16;101791.94;4997456;28;20038;-69
2023/06/04 05:15:30;;;;;;;5.65;2.50;;;;;;;11.39;78.90;101793.28;4998020;28;20133;-68
2023/06/04 05:17:57;;;;;;;11.15;2.35;;;;;;;11.48;78.63;101800.28;4998442;28;20045;-69
2023/06/04 05:20:27;;;;;;;5.05;2.70;;;;;;;11.59;78.08;101803.69;4988145;28;20033;-69
2023/06/04 05:22:55;;;;;;;8.57;2.83;;;;;;;11.70;77.76;101803.56;5002270;28;20565;-69
2023/06/04 05:25:21;;;;;;;4.38;2.72;;;;;;;11.81;77.82;101803.41;4997789;28;20437;-68
2023/06/04 05:27:49;;;;;;;6.35;3.03;;;;;;;12.02;76.92;101792.03;5000785;28;20014;-68
2023/06/04 05:30:15;;;;;;;7.55;2.58;;;;;;;12.13;76.18;101804.84;5016293;28;20128;-68
2023/06/04 05:32:41;;;;;;;5.00;2.53;;;;;;;12.24;75.49;101798.66;4998999;28;20396;-68
2023/06/04 05:35:09;;;;;;;8.48;2.80;;;;;;;12.39;74.99;101799.00;4996830;28;20037;-68
2023/06/04 05:37:37;;;;;;;7.32;2.50;;;;;;;12.54;74.13;101800.16;4996057;28;20417;-68
2023/06/04 05:40:05;;;;;;;10.23;3.30;;;;;;;12.71;73.25;101795.16;4998654;28;20054;-68
2023/06/04 05:42:33;;;;;;;5.22;2.95;;;;;;;12.85;73.00;101798.06;5000558;28;20026;-68
2023/06/04 05:44:58;;;;;;;5.68;2.63;;;;;;;13.05;71.50;101801.38;4997695;28;20431;-68
2023/06/04 05:47:24;;;;;;;9.05;2.60;;;;;;;13.19;70.63;101799.22;4997684;28;20030;-69
2023/06/04 05:49:50;;;;;;;10.57;2.92;;;;;;;13.39;70.20;101802.50;5000006;28;20037;-68
2023/06/04 05:52:15;;;;;;;5.18;2.50;;;;;;;13.59;69.35;101800.56;4984541;28;20247;-68
2023/06/04 05:54:43;;;;;;;7.93;2.95;;;;;;;13.79;68.46;101798.59;5014282;28;20043;-68
2023/06/04 05:57:09;;;;;;;7.40;2.63;;;;;;;13.93;67.01;101798.03;4999464;28;20038;-68
2023/06/04 05:59:34;;;;;;;7.47;2.60;;;;;;;14.08;66.25;101797.47;4996046;28;20057;-68
2023/06/04 06:02:03;;;;;;;6.05;2.70;;;;;;;14.18;64.84;101800.75;4999513;28;20038;-68
2023/06/04 06:04:29;;;;;;;8.15;2.90;;;;;;;14.38;64.98;101807.38;4997904;28;20035;-68
2023/06/04 06:06:56;;;;;;;6.65;2.45;;;;;;;14.58;64.99;101809.78;5015581;28;20038;-68
2023/06/04 06:09:21;;;;;;;11.80;3.13;;;;;;;14.81;63.67;101806.59;4998220;28;20524;-68
2023/06/04 06:11:47;;;;;;;8.95;2.97;;;;;;;15.11;62.91;101807.81;4997047;28;20302;-66
2023/06/04 06:14:13;;;;;;;9.15;2.60;;;;;;;15.28;60.91;101812.06;4996685;28;20044;-66
2023/06/04 06:16:39;;;;;;;5.28;2.78;;;;;;;15.50;60.47;101807.16;4996980;28;20038;-66
2023/06/04 06:19:04;;;;;;;5.40;2.30;;;;;;;15.67;60.62;101810.56;4983581;28;20053;-66
2023/06/04 06:21:30;;;;;;;7.57;2.88;;;;;;;15.80;59.56;101812.72;4998382;28;20093;-66
2023/06/04 06:23:56;;;;;;;6.57;2.70;;;;;;;16.04;58.44;101810.03;4993337;28;20045;-66
2023/06/04 06:26:22;;;;;;;9.45;2.53;;;;;;;16.26;57.07;101811.13;4993855;28;20690;-67
2023/06/04 06:28:51;;;;;;;5.90;2.72;;;;;;;16.50;55.96;101805.00;4995152;28;20073;-67
2023/06/04 06:31:17;;;;;;;5.97;2.63;;;;;;;16.53;54.85;101804.63;5010883;28;20029;-66
2023/06/04 06:33:43;;;;;;;6.28;2.20;;;;;;;16.61;53.81;101813.44;4995570;28;20107;-67
2023/06/04 06:36:18;;;;;;;8.13;2.40;;;;;;;16.83;53.22;101812.69;4999326;28;20046;-67
2023/06/04 06:38:45;;;;;;;4.70;2.13;;;;;;;17.15;53.03;101813.47;4996680;28;20392;-67
2023/06/04 06:41:10;;;;;;;18.13;8.77;;;;;;;17.30;50.57;101816.16;4998129;28;20042;-67
2023/06/04 06:43:36;;;;;;;6.63;2.67;;;;;;;17.55;50.36;101806.25;4998442;28;20656;-67
2023/06/04 06:46:01;;;;;;;9.48;2.92;;;;;;;17.90;48.25;101810.06;4996982;28;20054;-67
2023/06/04 06:48:27;;;;;;;7.15;2.60;;;;;;;18.06;44.59;101813.50;4998581;28;20034;-67
2023/06/04 06:50:53;;;;;;;9.23;2.75;;;;;;;18.08;46.22;101816.75;4994565;28;20500;-67
2023/06/04 06:53:19;;;;;;;9.80;2.78;;;;;;;18.49;46.68;101821.53;4995978;28;20322;-67
2023/06/04 06:55:44;;;;;;;4.88;2.22;;;;;;;19.02;45.29;101816.91;5014220;28;20499;-67
2023/06/04 06:58:10;;;;;;;7.97;2.47;;;;;;;19.44;45.33;101817.88;4994233;28;20488;-67
2023/06/04 07:00:35;;;;;;;12.90;2.65;;;;;;;19.44;43.44;101820.50;4976862;28;20033;-67
2023/06/04 07:03:01;;;;;;;4.97;2.10;;;;;;;19.87;42.54;101824.88;4993865;28;20037;-67
2023/06/04 07:05:26;;;;;;;4.32;2.13;;;;;;;20.15;41.11;101824.81;4995079;28;20045;-67
2023/06/04 07:07:52;;;;;;;4.60;1.88;;;;;;;20.50;40.18;101824.78;4996601;28;20022;-67
2023/06/04 07:10:18;;;;;;;9.15;2.80;;;;;;;20.55;39.67;101825.03;4995107;28;20489;-67
2023/06/04 07:12:43;;;;;;;5.20;2.45;;;;;;;20.96;40.30;101818.03;4995563;28;20038;-67
2023/06/04 07:15:09;;;;;;;7.35;2.00;;;;;;;21.03;39.85;101818.06;4997389;28;20508;-66
2023/06/04 07:17:34;;;;;;;7.00;2.30;;;;;;;20.92;38.38;101816.81;5010053;28;20026;-67
2023/06/04 07:20:00;;;;;;;4.93;2.00;;;;;;;20.58;38.43;101821.16;4996145;28;20084;-67
2023/06/04 07:22:26;;;;;;;6.10;1.85;;;;;;;20.96;38.96;101824.16;5000696;28;20416;-67
2023/06/04 07:24:52;;;;;;;6.85;2.25;;;;;;;21.25;37.65;101814.25;4998618;28;20045;-67
2023/06/04 07:27:18;;;;;;;3.33;1.77;;;;;;;21.46;37.39;101813.25;5011782;28;20103;-68
2023/06/04 07:29:44;;;;;;;5.38;1.92;;;;;;;21.73;37.25;101816.66;4998404;28;20181;-67
2023/06/04 07:32:10;;;;;;;4.65;1.60;;;;;;;21.45;36.72;101813.44;4998830;28;20136;-68
2023/06/04 07:34:36;;;;;;;4.05;1.80;;;;;;;21.66;36.17;101815.88;4993813;28;20058;-67
2023/06/04 07:37:02;;;;;;;3.53;1.40;;;;;;;21.44;35.81;101812.63;4999612;28;20077;-67
2023/06/04 07:39:28;;;;;;;6.13;1.70;;;;;;;21.81;37.32;101805.06;4986427;28;20036;-67
2023/06/04 07:41:54;;;;;;;7.03;1.90;;;;;;;22.18;36.09;101805.38;4999028;28;20038;-67
2023/06/04 07:44:19;;;;;;;6.80;1.60;;;;;;;22.38;36.02;101810.63;4998895;28;20060;-67
2023/06/04 07:46:45;;;;;;;6.15;1.88;;;;;;;22.44;35.42;101806.31;5001691;28;20424;-67
2023/06/04 07:49:10;;;;;;;4.35;1.70;;;;;;;22.46;35.63;101812.22;4997599;28;20037;-67
2023/06/04 07:51:37;;;;;;;4.95;1.83;;;;;;;22.00;34.53;101806.06;4996923;28;20030;-67
2023/06/04 07:54:03;;;;;;;3.55;1.65;;;;;;;22.03;35.55;101808.25;4995065;28;20056;-68
2023/06/04 07:56:28;;;;;;;5.70;2.17;;;;;;;22.70;34.35;101808.81;5008382;28;20046;-68
2023/06/04 07:58:54;;;;;;;6.07;2.95;;;;;;;22.28;34.09;101811.06;5011402;28;20050;-68
2023/06/04 08:01:19;;;;;;;5.68;2.00;;;;;;;22.40;34.87;101808.56;4998596;28;20124;-67
2023/06/04 08:03:45;;;;;;;5.50;1.63;;;;;;;23.08;34.37;101810.63;5001566;28;20052;-68
2023/06/04 08:06:11;;;;;;;3.95;1.90;;;;;;;22.89;33.74;101803.63;5002242;28;20361;-68
2023/06/04 08:08:36;;;;;;;9.07;2.03;;;;;;;22.86;34.00;101811.97;5017521;28;20519;-67
2023/06/04 08:11:02;;;;;;;5.05;2.15;;;;;;;23.00;33.63;101812.69;5001201;28;20037;-67
2023/06/04 08:13:28;;;;;;;6.13;1.90;;;;;;;23.09;33.43;101817.56;5000428;28;20057;-67
2023/06/04 08:15:53;;;;;;;2.47;1.50;;;;;;;23.27;33.86;101810.69;5002282;28;20498;-68
2023/06/04 08:18:19;;;;;;;6.50;2.00;;;;;;;23.77;32.55;101807.16;5000452;28;20115;-68
2023/06/04 08:20:44;;;;;;;3.85;2.00;;;;;;;23.42;32.27;101808.50;4987022;28;20026;-68
2023/06/04 08:23:10;;;;;;;10.80;1.90;;;;;;;23.84;31.80;101807.94;5014464;28;20479;-68
2023/06/04 08:25:36;;;;;;;5.63;2.13;;;;;;;23.05;31.61;101816.34;5000366;28;20030;-68
2023/06/04 08:28:01;;;;;;;6.60;2.25;;;;;;;23.31;32.31;101811.88;5015920;23;20025;-72
2023/06/04 08:30:27;;;;;;;7.28;2.78;;;;;;;23.67;31.71;101812.97;5023088;28;20033;-71
2023/06/04 08:32:53;;;;;;;7.32;2.30;;;;;;;23.05;32.00;101810.25;5003679;28;20830;-72
2023/06/04 08:35:18;;;;;;;6.28;1.90;;;;;;;23.61;32.06;101808.56;5006465;28;20029;-72
2023/06/04 08:37:44;;;;;;;3.63;2.00;;;;;;;24.18;31.34;101801.22;4993322;28;20123;-72
2023/06/04 08:40:10;;;;;;;3.92;2.13;;;;;;;24.00;32.60;101807.34;5006481;28;20072;-72
2023/06/04 08:42:44;;;;;;;4.10;2.20;;;;;;;24.55;31.79;101811.78;5000837;28;20105;-71
2023/06/04 08:45:16;;;;;;;4.75;2.25;;;;;;;24.93;30.92;101805.31;5004050;28;20042;-71
2023/06/04 08:47:49;;;;;;;4.13;1.67;;;;;;;24.83;30.60;101811.19;4990591;28;20057;-72
2023/06/04 08:50:17;;;;;;;3.80;2.38;;;;;;;25.13;29.81;101812.16;5007711;28;20069;-72
2023/06/04 08:52:42;;;;;;;7.75;2.03;;;;;;;25.15;30.06;101818.06;5009082;28;20041;-72
2023/06/04 08:55:13;;;;;;;3.80;2.00;;;;;;;25.56;29.89;101805.72;4992649;28;20041;-72
2023/06/04 08:57:40;;;;;;;9.38;1.80;;;;;;;25.42;28.78;101808.63;4988554;28;20033;-72
2023/06/04 09:00:07;;;;;;;11.48;1.80;;;;;;;25.20;28.93;101810.19;5005957;28;20329;-72
2023/06/04 09:02:37;;;;;;;3.70;1.85;;;;;;;25.18;28.91;101810.44;5010676;28;20113;-72
2023/06/04 09:05:04;;;;;;;2.92;1.88;;;;;;;25.41;29.74;101817.66;5009523;28;20049;-72
2023/06/04 09:07:30;;;;;;;4.05;1.80;;;;;;;25.87;28.28;101812.50;4977199;28;20806;-72
2023/06/04 09:09:56;;;;;;;6.72;1.95;;;;;;;26.44;28.64;101809.13;5001543;28;20052;-72
2023/06/04 09:12:24;;;;;;;2.72;1.55;;;;;;;26.05;27.60;101808.94;5003343;28;20026;-72
2023/06/04 09:14:52;;;;;;;4.53;1.38;;;;;;;26.09;27.80;101817.22;4988913;28;20050;-72
2023/06/04 09:17:24;;;;;;;3.85;1.50;;;;;;;26.45;27.21;101808.09;4996518;28;20038;-71
2023/06/04 09:19:51;;;;;;;8.68;2.10;;;;;;;26.41;27.45;101809.63;5002681;28;20046;-72
2023/06/04 09:22:17;;;;;;;7.82;1.60;;;;;;;26.54;27.53;101800.53;4986606;28;20431;-71
2023/06/04 09:24:52;;;;;;;3.40;2.15;;;;;;;26.90;28.08;101812.63;4998324;28;20073;-71
2023/06/04 09:27:22;;;;;;;4.47;1.58;;;;;;;26.01;27.17;101818.41;4985032;28;20308;-72
2023/06/04 09:29:51;;;;;;;4.13;1.60;;;;;;;26.22;27.42;101820.44;4989634;28;20042;-72
2023/06/04 09:32:22;;;;;;;4.90;1.60;;;;;;;26.24;27.29;101820.19;5005996;28;20084;-71
2023/06/04 09:34:48;;;;;;;4.97;1.45;;;;;;;26.14;27.13;101804.84;4990316;28;20046;-71
2023/06/04 09:37:17;;;;;;;7.32;1.23;;;;;;;26.24;26.96;101801.59;4990774;28;20113;-72
2023/06/04 09:39:52;;;;;;;4.35;1.35;;;;;;;26.21;28.60;101807.38;5007427;28;20132;-72
2023/06/04 09:42:17;;;;;;;4.38;2.35;;;;;;;25.72;27.79;101812.19;4988386;28;20284;-72
2023/06/04 09:44:46;;;;;;;5.00;1.63;;;;;;;25.33;27.80;101807.34;4990706;28;20077;-72
2023/06/04 09:47:12;;;;;;;2.88;1.40;;;;;;;25.66;29.12;101805.97;5002050;28;20034;-72
2023/06/04 09:49:45;;;;;;;5.25;1.77;;;;;;;25.49;27.81;101818.34;4986133;28;20117;-72
2023/06/04 09:52:12;;;;;;;3.67;1.42;;;;;;;25.66;27.91;101811.28;5003819;28;20042;-72
2023/06/04 09:54:41;;;;;;;6.72;1.20;;;;;;;25.95;28.28;101806.84;5005691;28;20049;-71
2023/06/04 09:57:28;;;;;;;5.10;1.52;;;;;;;25.99;28.74;101818.66;5006109;28;20483;-72
2023/06/04 09:59:56;;;;;;;5.05;1.60;;;;;;;25.77;27.78;101815.78;5005865;28;20458;-72
2023/06/04 10:02:22;;;;;;;2.58;1.60;;;;;;;25.76;27.82;101808.03;5005930;28;20510;-71
2023/06/04 10:04:59;;;;;;;3.60;1.63;;;;;;;25.78;26.82;101817.38;4987023;28;20045;-71
2023/06/04 10:07:28;;;;;;;4.60;1.67;;;;;;;25.65;26.74;101817.63;4971212;28;20038;-71
2023/06/04 10:09:54;;;;;;;4.18;1.40;;;;;;;25.65;27.50;101814.97;4989339;28;20111;-72
2023/06/04 10:12:30;;;;;;;5.43;1.20;;;;;;;26.07;27.40;101809.50;4989893;28;20045;-71
2023/06/04 10:15:06;;;;;;;4.90;1.20;;;;;;;26.57;25.99;101813.34;4968717;28;20372;-72
2023/06/04 10:17:33;;;;;;;3.47;1.55;;;;;;;26.68;26.14;101815.16;4988928;28;20076;-72
2023/06/04 10:20:01;;;;;;;4.05;1.33;;;;;;;25.59;26.12;101816.69;4987900;28;20060;-72
2023/06/04 10:22:28;;;;;;;5.00;1.27;;;;;;;26.05;26.75;101814.25;4999971;28;20117;-72
2023/06/04 10:24:54;;;;;;;3.72;1.20;;;;;;;26.28;25.49;101805.38;4982525;28;20042;-72
2023/06/04 10:27:21;;;;;;;4.85;1.50;;;;;;;26.16;25.96;101800.13;4989193;28;20466;-72
2023/06/04 10:29:49;;;;;;;9.63;1.60;;;;;;;26.03;26.58;101801.19;5000484;28;20412;-72
2023/06/04 10:32:15;;;;;;;2.55;1.55;;;;;;;26.05;26.78;101793.00;5001873;28;20211;-72
2023/06/04 10:34:40;;;;;;;2.80;1.48;;;;;;;25.84;28.07;101797.88;4969623;28;20046;-72
2023/06/04 10:37:06;;;;;;;4.68;1.60;;;;;;;25.91;26.60;101807.53;4986095;28;20303;-72
2023/06/04 10:39:32;;;;;;;3.88;1.50;;;;;;;25.63;26.94;101796.59;4980515;28;20147;-72
2023/06/04 10:42:05;;;;;;;2.58;1.30;;;;;;;25.66;27.51;101795.34;5000784;28;20386;-72
2023/06/04 10:44:32;;;;;;;2.63;1.77;;;;;;;25.50;26.49;101791.53;5003556;28;20064;-72
2023/06/04 10:46:58;;;;;;;2.45;1.52;;;;;;;25.42;26.20;101803.31;4981510;28;20030;-72
2023/06/04 10:49:28;;;;;;;3.88;1.20;;;;;;;25.40;28.53;101801.94;4998868;28;20046;-72
2023/06/04 10:52:02;;;;;;;3.25;1.52;;;;;;;25.73;27.80;101798.69;4984612;28;20060;-72
2023/06/04 10:54:28;;;;;;;2.97;1.25;;;;;;;25.52;27.04;101797.41;5001095;28;20046;-72
2023/06/04 10:56:54;;;;;;;2.35;1.20;;;;;;;24.97;26.56;101801.16;4986637;28;20053;-72
2023/06/04 10:59:20;;;;;;;6.97;1.50;;;;;;;24.64;27.38;101807.00;4999080;28;20041;-72
2023/06/04 11:01:47;;;;;;;4.68;1.63;;;;;;;24.90;27.58;101795.16;4981015;28;20041;-71
2023/06/04 11:04:23;;;;;;;3.97;1.70;;;;;;;25.06;26.93;101794.50;4997512;28;20068;-72
2023/06/04 11:07:08;;;;;;;4.10;1.73;;;;;;;25.33;27.46;101793.28;4998180;28;20475;-72
2023/06/04 11:09:48;;;;;;;4.03;1.50;;;;;;;25.97;27.78;101794.16;5001466;28;20084;-72
2023/06/04 11:12:14;;;;;;;7.93;1.48;;;;;;;26.37;27.44;101787.19;4983424;28;20037;-72
2023/06/04 11:14:40;;;;;;;6.22;1.60;;;;;;;25.73;27.08;101787.25;4998856;28;20068;-72
2023/06/04 11:17:11;;;;;;;8.32;1.65;;;;;;;25.95;26.14;101779.50;5001496;28;20046;-72
2023/06/04 11:19:37;;;;;;;2.80;1.55;;;;;;;26.10;25.69;101777.13;4983491;28;20053;-72
2023/06/04 11:22:02;;;;;;;5.55;1.58;;;;;;;26.16;27.25;101775.38;4985419;28;20022;-72
2023/06/04 11:24:29;;;;;;;4.22;1.20;;;;;;;26.03;26.92;101776.44;4980457;28;20630;-72